createdAt,value
2018-03-19T00:00:03.438Z,-0.12
2018-03-19T00:00:07.438Z,-0.16
2018-03-19T00:00:11.664Z,-0.12
2018-03-19T00:00:15.782Z,-0.17
2018-03-19T00:00:20.036Z,-0.08
2018-03-19T00:00:24.561Z,-0.17
2018-03-19T00:00:28.795Z,-0.16
2018-03-19T00:00:32.906Z,-0.09
2018-03-19T00:00:37.230Z,-0.14
2018-03-19T00:00:41.242Z,-0.13
2018-03-19T00:00:45.475Z,-0.17
2018-03-19T00:00:49.702Z,-0.17
2018-03-19T00:00:54.034Z,-0.13
2018-03-19T00:00:58.254Z,-0.08
2018-03-19T00:01:02.367Z,-0.2
2018-03-19T00:01:06.380Z,-0.14
2018-03-19T00:01:10.501Z,-0.14
2018-03-19T00:01:14.612Z,-0.2
2018-03-19T00:01:18.626Z,-0.14
2018-03-19T00:01:22.786Z,-0.17
2018-03-19T00:01:26.795Z,-0.08
2018-03-19T00:01:30.915Z,-0.17
2018-03-19T00:01:35.249Z,-0.12
2018-03-19T00:01:39.368Z,-0.13
2018-03-19T00:01:43.483Z,-0.08
2018-03-19T00:01:47.598Z,-0.13
2018-03-19T00:01:51.776Z,-0.13
2018-03-19T00:01:55.894Z,-0.14
2018-03-19T00:02:00.020Z,-0.14
2018-03-19T00:02:04.134Z,-0.16
2018-03-19T00:02:08.361Z,-0.2
2018-03-19T00:02:12.605Z,-0.08
2018-03-19T00:02:16.827Z,-0.06
2018-03-19T00:02:20.842Z,-0.16
2018-03-19T00:02:25.186Z,-0.17
2018-03-19T00:02:29.292Z,-0.16
2018-03-19T00:02:33.299Z,-0.16
2018-03-19T00:02:37.525Z,-0.12
2018-03-19T00:02:41.637Z,-0.14
2018-03-19T00:02:45.855Z,-0.13
2018-03-19T00:02:50.078Z,-0.09
2018-03-19T00:02:54.290Z,-0.14
2018-03-19T00:02:58.413Z,-0.14
2018-03-19T00:03:02.429Z,-0.14
2018-03-19T00:03:06.441Z,-0.16
2018-03-19T00:03:10.458Z,-0.08
2018-03-19T00:03:14.786Z,-0.12
2018-03-19T00:03:19.020Z,-0.08
2018-03-19T00:03:23.129Z,-0.14
2018-03-19T00:03:27.251Z,-0.16
2018-03-19T00:03:31.476Z,-0.05
2018-03-19T00:03:35.696Z,-0.12
2018-03-19T00:03:39.921Z,-0.16
2018-03-19T00:03:44.150Z,-0.08
2018-03-19T00:03:48.159Z,-0.2
2018-03-19T00:03:52.374Z,-0.17
2018-03-19T00:03:56.380Z,-0.14
2018-03-19T00:04:00.513Z,-0.14
2018-03-19T00:04:04.886Z,-0.13
2018-03-19T00:04:09.235Z,-0.13
2018-03-19T00:04:13.355Z,-0.13
2018-03-19T00:04:17.576Z,-0.16
2018-03-19T00:04:21.803Z,-0.13
2018-03-19T00:04:25.922Z,-0.08
2018-03-19T00:04:30.152Z,-0.14
2018-03-19T00:04:34.164Z,-0.08
2018-03-19T00:04:38.503Z,-0.13
2018-03-19T00:04:42.739Z,-0.19
2018-03-19T00:04:46.872Z,-0.23
2018-03-19T00:04:51.115Z,-0.13
2018-03-19T00:04:55.121Z,-0.14
2018-03-19T00:04:59.243Z,-0.16
2018-03-19T00:05:03.771Z,-0.08
2018-03-19T00:05:07.887Z,-0.09
2018-03-19T00:05:11.782Z,-0.09
2018-03-19T00:05:15.788Z,-0.19
2018-03-19T00:05:19.904Z,-0.09
2018-03-19T00:05:24.245Z,-0.09
2018-03-19T00:05:28.589Z,-0.09
2018-03-19T00:05:32.706Z,-0.21
2018-03-19T00:05:36.925Z,-0.13
2018-03-19T00:05:41.156Z,-0.26
2018-03-19T00:05:45.404Z,-0.2
2018-03-19T00:05:49.516Z,-0.05
2018-03-19T00:05:53.520Z,-0.12
2018-03-19T00:05:57.749Z,-0.17
2018-03-19T00:06:01.761Z,-0.19
2018-03-19T00:06:05.819Z,-0.06
2018-03-19T00:06:09.833Z,-0.16
2018-03-19T00:06:13.942Z,-0.14
2018-03-19T00:06:18.060Z,-0.19
2018-03-19T00:06:22.177Z,-0.2
2018-03-19T00:06:26.293Z,-0.14
2018-03-19T00:06:30.623Z,-0.17
2018-03-19T00:06:34.852Z,-0.19
2018-03-19T00:06:39.181Z,-0.13
2018-03-19T00:06:43.190Z,-0.21
2018-03-19T00:06:47.301Z,-0.14
2018-03-19T00:06:51.098Z,-0.06
2018-03-19T00:06:55.100Z,-0.2
2018-03-19T00:06:58.895Z,-0.09
2018-03-19T00:07:03.157Z,-0.19
2018-03-19T00:07:07.388Z,-0.2
2018-03-19T00:07:11.613Z,-0.17
2018-03-19T00:07:15.832Z,-0.09
2018-03-19T00:07:20.050Z,-0.16
2018-03-19T00:07:24.268Z,-0.12
2018-03-19T00:07:28.516Z,-0.2
2018-03-19T00:07:32.744Z,-0.23
2018-03-19T00:07:36.968Z,-0.14
2018-03-19T00:07:41.079Z,-0.26
2018-03-19T00:07:45.413Z,-0.09
2018-03-19T00:07:49.524Z,-0.19
2018-03-19T00:07:53.646Z,-0.2
2018-03-19T00:07:57.969Z,-0.19
2018-03-19T00:08:02.341Z,-0.19
2018-03-19T00:08:06.243Z,-0.09
2018-03-19T00:08:10.493Z,-0.14
2018-03-19T00:08:14.607Z,-0.13
2018-03-19T00:08:18.726Z,-0.21
2018-03-19T00:08:22.948Z,-0.08
2018-03-19T00:08:27.164Z,-0.19
2018-03-19T00:08:31.387Z,-0.17
2018-03-19T00:08:35.383Z,-0.14
2018-03-19T00:08:39.716Z,-0.13
2018-03-19T00:08:43.825Z,-0.23
2018-03-19T00:08:47.995Z,-0.19
2018-03-19T00:08:52.123Z,-0.2
2018-03-19T00:08:56.460Z,-0.08
2018-03-19T00:09:00.705Z,-0.08
2018-03-19T00:09:05.044Z,-0.14
2018-03-19T00:09:09.266Z,-0.13
2018-03-19T00:09:13.599Z,-0.19
2018-03-19T00:09:17.820Z,-0.21
2018-03-19T00:09:22.210Z,-0.09
2018-03-19T00:09:26.331Z,-0.14
2018-03-19T00:09:30.333Z,-0.13
2018-03-19T00:09:34.667Z,-0.19
2018-03-19T00:09:38.991Z,-0.13
2018-03-19T00:09:43.234Z,-0.12
2018-03-19T00:09:47.453Z,-0.13
2018-03-19T00:09:51.781Z,-0.08
2018-03-19T00:09:56.162Z,-0.13
2018-03-19T00:10:00.390Z,-0.19
2018-03-19T00:10:04.404Z,-0.16
2018-03-19T00:10:08.653Z,-0.08
2018-03-19T00:10:12.988Z,-0.14
2018-03-19T00:10:17.109Z,-0.13
2018-03-19T00:10:21.362Z,-0.09
2018-03-19T00:10:25.272Z,-0.2
2018-03-19T00:10:29.598Z,-0.13
2018-03-19T00:10:33.717Z,-0.12
2018-03-19T00:10:37.726Z,-0.08
2018-03-19T00:10:41.844Z,-0.19
2018-03-19T00:10:46.069Z,-0.13
2018-03-19T00:10:50.296Z,-0.12
2018-03-19T00:10:54.407Z,-0.17
2018-03-19T00:10:58.732Z,-0.09
2018-03-19T00:11:03.005Z,-0.12
2018-03-19T00:11:07.010Z,-0.05
2018-03-19T00:11:11.241Z,-0.2
2018-03-19T00:11:15.255Z,-0.06
2018-03-19T00:11:19.474Z,-0.16
2018-03-19T00:11:23.589Z,-0.14
2018-03-19T00:11:27.703Z,-0.16
2018-03-19T00:11:31.708Z,-0.16
2018-03-19T00:11:35.926Z,-0.14
2018-03-19T00:11:40.274Z,-0.17
2018-03-19T00:11:44.383Z,-0.09
2018-03-19T00:11:48.720Z,-0.16
2018-03-19T00:11:52.955Z,-0.17
2018-03-19T00:11:56.961Z,-0.05
2018-03-19T00:12:01.081Z,-0.13
2018-03-19T00:12:05.551Z,-0.17
2018-03-19T00:12:09.615Z,-0.12
2018-03-19T00:12:13.944Z,-0.13
2018-03-19T00:12:17.953Z,-0.16
2018-03-19T00:12:22.179Z,-0.06
2018-03-19T00:12:26.514Z,-0.12
2018-03-19T00:12:30.522Z,-0.09
2018-03-19T00:12:34.743Z,-0.13
2018-03-19T00:12:38.638Z,-0.12
2018-03-19T00:12:42.752Z,-0.2
2018-03-19T00:12:46.551Z,-0.12
2018-03-19T00:12:50.772Z,-0.12
2018-03-19T00:12:54.890Z,-0.14
2018-03-19T00:12:58.786Z,-0.14
2018-03-19T00:13:02.801Z,-0.03
2018-03-19T00:13:06.914Z,-0.12
2018-03-19T00:13:11.033Z,-0.08
2018-03-19T00:13:15.148Z,-0.08
2018-03-19T00:13:19.156Z,-0.12
2018-03-19T00:13:23.281Z,-0.09
2018-03-19T00:13:27.512Z,-0.09
2018-03-19T00:13:31.533Z,-0.09
2018-03-19T00:13:35.759Z,-0.12
2018-03-19T00:13:39.976Z,-0.09
2018-03-19T00:13:44.094Z,-0.09
2018-03-19T00:13:48.424Z,-0.08
2018-03-19T00:13:52.660Z,-0.08
2018-03-19T00:13:56.670Z,-0.06
2018-03-19T00:14:00.791Z,-0.01
2018-03-19T00:14:05.100Z,-0.05
2018-03-19T00:14:09.328Z,0.04
2018-03-19T00:14:13.119Z,0.01
2018-03-19T00:14:17.343Z,-0.02
2018-03-19T00:14:21.458Z,-0.05
2018-03-19T00:14:25.637Z,-0.05
2018-03-19T00:14:29.639Z,-0.01
2018-03-19T00:14:33.752Z,-0.03
2018-03-19T00:14:37.757Z,-0.06
2018-03-19T00:14:41.761Z,-0.02
2018-03-19T00:14:45.785Z,0.02
2018-03-19T00:14:50.007Z,-0.03
2018-03-19T00:14:54.017Z,-0.03
2018-03-19T00:14:58.262Z,-0.02
2018-03-19T00:15:02.829Z,-0.03
2018-03-19T00:15:06.945Z,-0.06
2018-03-19T00:15:11.174Z,-0.03
2018-03-19T00:15:15.408Z,-0.08
2018-03-19T00:15:19.416Z,-0.02
2018-03-19T00:15:23.636Z,-0.01
2018-03-19T00:15:27.968Z,0.04
2018-03-19T00:15:32.191Z,-0.06
2018-03-19T00:15:36.517Z,-0.02
2018-03-19T00:15:40.636Z,-0.02
2018-03-19T00:15:44.746Z,-0.03
2018-03-19T00:15:48.862Z,-0.03
2018-03-19T00:15:53.087Z,0.02
2018-03-19T00:15:57.200Z,0.05
2018-03-19T00:16:01.424Z,0.01
2018-03-19T00:16:05.543Z,-0.05
2018-03-19T00:16:09.663Z,-0.02
2018-03-19T00:16:13.671Z,-0.03
2018-03-19T00:16:17.786Z,-0.02
2018-03-19T00:16:22.012Z,-0.06
2018-03-19T00:16:26.243Z,0.04
2018-03-19T00:16:30.571Z,0.04
2018-03-19T00:16:34.688Z,-0.03
2018-03-19T00:16:39.069Z,-0.06
2018-03-19T00:16:43.300Z,0.02
2018-03-19T00:16:47.518Z,-0.05
2018-03-19T00:16:51.516Z,-0.03
2018-03-19T00:16:55.741Z,-0.02
2018-03-19T00:16:59.852Z,-0.03
2018-03-19T00:17:03.973Z,-0.03
2018-03-19T00:17:08.083Z,0.02
2018-03-19T00:17:12.198Z,-0.03
2018-03-19T00:17:16.308Z,0.01
2018-03-19T00:17:20.634Z,-0.03
2018-03-19T00:17:24.744Z,-0.03
2018-03-19T00:17:28.858Z,0.04
2018-03-19T00:17:32.986Z,0.04
2018-03-19T00:17:37.098Z,-0.03
2018-03-19T00:17:41.320Z,-0.02
2018-03-19T00:17:45.437Z,0.02
2018-03-19T00:17:49.650Z,-0.01
2018-03-19T00:17:53.923Z,-0.06
2018-03-19T00:17:57.927Z,-0.02
2018-03-19T00:18:02.042Z,0.02
2018-03-19T00:18:05.831Z,-0.03
2018-03-19T00:18:09.844Z,-0.03
2018-03-19T00:18:13.967Z,-0.05
2018-03-19T00:18:18.080Z,-0.05
2018-03-19T00:18:22.303Z,-0.03
2018-03-19T00:18:26.530Z,-0.05
2018-03-19T00:18:30.857Z,-0.06
2018-03-19T00:18:35.074Z,0.02
2018-03-19T00:18:39.185Z,0.02
2018-03-19T00:18:43.406Z,-0.05
2018-03-19T00:18:47.522Z,-0.02
2018-03-19T00:18:51.857Z,-0.03
2018-03-19T00:18:55.970Z,-0.01
2018-03-19T00:19:00.094Z,-0.01
2018-03-19T00:19:04.424Z,-0.01
2018-03-19T00:19:08.589Z,-0.03
2018-03-19T00:19:12.921Z,-0.02
2018-03-19T00:19:16.928Z,-0.05
2018-03-19T00:19:21.154Z,-0.03
2018-03-19T00:19:25.172Z,-0.02
2018-03-19T00:19:29.326Z,0.02
2018-03-19T00:19:33.548Z,-0.03
2018-03-19T00:19:37.774Z,-0.02
2018-03-19T00:19:41.674Z,0.02
2018-03-19T00:19:45.891Z,-0.02
2018-03-19T00:19:50.007Z,-0.03
2018-03-19T00:19:54.244Z,-0.05
2018-03-19T00:19:58.584Z,-0.02
2018-03-19T00:20:02.581Z,-0.06
2018-03-19T00:20:06.520Z,-0.01
2018-03-19T00:20:10.737Z,-0.05
2018-03-19T00:20:15.070Z,-0.01
2018-03-19T00:20:19.076Z,0.08
2018-03-19T00:20:23.190Z,-0.01
2018-03-19T00:20:27.198Z,0.01
2018-03-19T00:20:31.523Z,0.04
2018-03-19T00:20:35.635Z,-0.05
2018-03-19T00:20:39.859Z,0.07
2018-03-19T00:20:44.196Z,-0.03
2018-03-19T00:20:48.421Z,-0.02
2018-03-19T00:20:52.544Z,0.08
2018-03-19T00:20:56.559Z,-0.02
2018-03-19T00:21:00.459Z,0.01
2018-03-19T00:21:04.359Z,-0.06
2018-03-19T00:21:08.582Z,0.01
2018-03-19T00:21:12.704Z,0.04
2018-03-19T00:21:16.921Z,0.07
2018-03-19T00:21:21.031Z,-0.01
2018-03-19T00:21:25.145Z,-0.05
2018-03-19T00:21:29.255Z,0.05
2018-03-19T00:21:33.479Z,-0.02
2018-03-19T00:21:37.812Z,0.01
2018-03-19T00:21:42.037Z,0.02
2018-03-19T00:21:46.148Z,0.04
2018-03-19T00:21:50.272Z,0.01
2018-03-19T00:21:54.617Z,-0.01
2018-03-19T00:21:58.621Z,0.02
2018-03-19T00:22:02.836Z,-0.03
2018-03-19T00:22:06.836Z,0.04
2018-03-19T00:22:10.950Z,0.01
2018-03-19T00:22:14.969Z,-0.03
2018-03-19T00:22:19.187Z,0.07
2018-03-19T00:22:23.091Z,0.01
2018-03-19T00:22:27.317Z,0.04
2018-03-19T00:22:31.534Z,0.01
2018-03-19T00:22:35.923Z,-0.02
2018-03-19T00:22:40.044Z,0.01
2018-03-19T00:22:44.271Z,0.07
2018-03-19T00:22:48.595Z,-0.05
2018-03-19T00:22:52.925Z,0.05
2018-03-19T00:22:57.265Z,-0.03
2018-03-19T00:23:01.479Z,-0.02
2018-03-19T00:23:05.598Z,0.07
2018-03-19T00:23:09.716Z,0.05
2018-03-19T00:23:13.833Z,0.01
2018-03-19T00:23:17.949Z,-0.03
2018-03-19T00:23:21.954Z,-0.03
2018-03-19T00:23:26.299Z,-0.05
2018-03-19T00:23:30.519Z,0.07
2018-03-19T00:23:34.740Z,0.04
2018-03-19T00:23:38.754Z,-0.06
2018-03-19T00:23:42.975Z,-0.01
2018-03-19T00:23:47.087Z,-0.02
2018-03-19T00:23:51.192Z,-0.05
2018-03-19T00:23:55.414Z,-0.08
2018-03-19T00:23:59.638Z,-0.03
2018-03-19T00:24:04.161Z,-0.02
2018-03-19T00:24:08.380Z,0.01
2018-03-19T00:24:12.604Z,-0.06
2018-03-19T00:24:16.827Z,-0.03
2018-03-19T00:24:20.725Z,-0.02
2018-03-19T00:24:24.968Z,-0.05
2018-03-19T00:24:28.866Z,-0.03
2018-03-19T00:24:33.193Z,-0.03
2018-03-19T00:24:37.419Z,0.04
2018-03-19T00:24:41.747Z,-0.02
2018-03-19T00:24:45.750Z,-0.03
2018-03-19T00:24:49.757Z,-0.03
2018-03-19T00:24:53.877Z,0.01
2018-03-19T00:24:57.770Z,0.02
2018-03-19T00:25:02.194Z,-0.03
2018-03-19T00:25:06.092Z,0.04
2018-03-19T00:25:09.997Z,-0.06
2018-03-19T00:25:14.116Z,-0.05
2018-03-19T00:25:18.225Z,-0.03
2018-03-19T00:25:22.446Z,-0.03
2018-03-19T00:25:26.453Z,0.04
2018-03-19T00:25:30.671Z,-0.03
2018-03-19T00:25:34.893Z,-0.08
2018-03-19T00:25:39.010Z,-0.05
2018-03-19T00:25:43.128Z,-0.05
2018-03-19T00:25:47.022Z,-0.12
2018-03-19T00:25:51.029Z,-0.05
2018-03-19T00:25:55.362Z,-0.08
2018-03-19T00:25:59.585Z,-0.08
2018-03-19T00:26:04.008Z,-0.06
2018-03-19T00:26:08.014Z,-0.06
2018-03-19T00:26:12.138Z,-0.09
2018-03-19T00:26:16.529Z,-0.12
2018-03-19T00:26:20.528Z,-0.09
2018-03-19T00:26:24.653Z,-0.08
2018-03-19T00:26:28.890Z,-0.14
2018-03-19T00:26:32.901Z,-0.09
2018-03-19T00:26:37.125Z,-0.13
2018-03-19T00:26:41.256Z,-0.16
2018-03-19T00:26:45.477Z,-0.13
2018-03-19T00:26:49.697Z,-0.14
2018-03-19T00:26:54.034Z,-0.12
2018-03-19T00:26:58.366Z,-0.13
2018-03-19T00:27:02.534Z,-0.17
2018-03-19T00:27:06.649Z,-0.06
2018-03-19T00:27:10.765Z,-0.12
2018-03-19T00:27:14.675Z,-0.16
2018-03-19T00:27:18.796Z,-0.12
2018-03-19T00:27:22.910Z,-0.17
2018-03-19T00:27:27.132Z,-0.06
2018-03-19T00:27:31.355Z,-0.17
2018-03-19T00:27:35.692Z,-0.09
2018-03-19T00:27:39.802Z,-0.14
2018-03-19T00:27:43.914Z,-0.06
2018-03-19T00:27:48.134Z,-0.08
2018-03-19T00:27:52.695Z,-0.06
2018-03-19T00:27:57.056Z,-0.21
2018-03-19T00:28:01.278Z,-0.26
2018-03-19T00:28:05.850Z,-0.2
2018-03-19T00:28:09.923Z,-0.19
2018-03-19T00:28:14.038Z,-0.21
2018-03-19T00:28:18.047Z,-0.09
2018-03-19T00:28:22.279Z,-0.12
2018-03-19T00:28:26.505Z,-0.23
2018-03-19T00:28:30.510Z,-0.2
2018-03-19T00:28:34.630Z,-0.26
2018-03-19T00:28:38.636Z,-0.26
2018-03-19T00:28:42.751Z,-0.13
2018-03-19T00:28:46.865Z,-0.2
2018-03-19T00:28:51.201Z,-0.2
2018-03-19T00:28:55.423Z,-0.2
2018-03-19T00:28:59.647Z,-0.12
2018-03-19T00:29:03.869Z,-0.2
2018-03-19T00:29:07.991Z,-0.16
2018-03-19T00:29:12.318Z,-0.2
2018-03-19T00:29:16.546Z,-0.2
2018-03-19T00:29:20.654Z,-0.12
2018-03-19T00:29:24.980Z,-0.19
2018-03-19T00:29:28.938Z,-0.24
2018-03-19T00:29:33.162Z,-0.24
2018-03-19T00:29:37.273Z,-0.2
2018-03-19T00:29:41.495Z,-0.17
2018-03-19T00:29:45.612Z,-0.24
2018-03-19T00:29:49.839Z,-0.19
2018-03-19T00:29:54.176Z,-0.13
2018-03-19T00:29:58.285Z,-0.26
2018-03-19T00:30:02.539Z,-0.31
2018-03-19T00:30:06.659Z,-0.2
2018-03-19T00:30:10.992Z,-0.12
2018-03-19T00:30:15.006Z,-0.16
2018-03-19T00:30:19.128Z,-0.19
2018-03-19T00:30:23.135Z,-0.14
2018-03-19T00:30:27.479Z,-0.17
2018-03-19T00:30:31.501Z,-0.2
2018-03-19T00:30:35.829Z,-0.3
2018-03-19T00:30:40.160Z,-0.26
2018-03-19T00:30:44.485Z,-0.23
2018-03-19T00:30:48.490Z,-0.21
2018-03-19T00:30:52.717Z,-0.21
2018-03-19T00:30:56.840Z,-0.24
2018-03-19T00:31:01.077Z,-0.24
2018-03-19T00:31:05.220Z,-0.24
2018-03-19T00:31:09.220Z,-0.24
2018-03-19T00:31:13.355Z,-0.23
2018-03-19T00:31:17.254Z,-0.23
2018-03-19T00:31:21.479Z,-0.23
2018-03-19T00:31:25.727Z,-0.23
2018-03-19T00:31:29.739Z,-0.21
2018-03-19T00:31:33.964Z,-0.19
2018-03-19T00:31:38.080Z,-0.26
2018-03-19T00:31:42.305Z,-0.24
2018-03-19T00:31:46.309Z,-0.26
2018-03-19T00:31:50.528Z,-0.27
2018-03-19T00:31:54.756Z,-0.26
2018-03-19T00:31:58.885Z,-0.2
2018-03-19T00:32:02.893Z,-0.23
2018-03-19T00:32:07.012Z,-0.23
2018-03-19T00:32:11.235Z,-0.3
2018-03-19T00:32:15.462Z,-0.3
2018-03-19T00:32:19.464Z,-0.26
2018-03-19T00:32:23.700Z,-0.24
2018-03-19T00:32:27.710Z,-0.21
2018-03-19T00:32:31.822Z,-0.24
2018-03-19T00:32:35.935Z,-0.27
2018-03-19T00:32:40.168Z,-0.26
2018-03-19T00:32:44.504Z,-0.23
2018-03-19T00:32:48.402Z,-0.19
2018-03-19T00:32:52.626Z,-0.21
2018-03-19T00:32:56.853Z,-0.2
2018-03-19T00:33:01.075Z,-0.27
2018-03-19T00:33:05.448Z,-0.21
2018-03-19T00:33:09.664Z,-0.24
2018-03-19T00:33:13.888Z,-0.24
2018-03-19T00:33:18.018Z,-0.24
2018-03-19T00:33:22.244Z,-0.24
2018-03-19T00:33:26.363Z,-0.23
2018-03-19T00:33:30.472Z,-0.26
2018-03-19T00:33:34.584Z,-0.23
2018-03-19T00:33:38.809Z,-0.23
2018-03-19T00:33:42.922Z,-0.27
2018-03-19T00:33:47.145Z,-0.26
2018-03-19T00:33:51.364Z,-0.26
2018-03-19T00:33:55.477Z,-0.41
2018-03-19T00:33:59.590Z,-0.26
2018-03-19T00:34:03.818Z,-0.38
2018-03-19T00:34:08.043Z,-0.24
2018-03-19T00:34:12.158Z,-0.21
2018-03-19T00:34:16.276Z,-0.27
2018-03-19T00:34:20.606Z,-0.31
2018-03-19T00:34:24.733Z,-0.27
2018-03-19T00:34:28.528Z,-0.34
2018-03-19T00:34:32.652Z,-0.34
2018-03-19T00:34:36.769Z,-0.27
2018-03-19T00:34:40.772Z,-0.27
2018-03-19T00:34:44.882Z,-0.31
2018-03-19T00:34:49.114Z,-0.34
2018-03-19T00:34:53.342Z,-0.31
2018-03-19T00:34:57.460Z,-0.24
2018-03-19T00:35:01.827Z,-0.32
2018-03-19T00:35:05.506Z,-0.35
2018-03-19T00:35:09.516Z,-0.24
2018-03-19T00:35:13.737Z,-0.21
2018-03-19T00:35:17.960Z,-0.3
2018-03-19T00:35:22.089Z,-0.32
2018-03-19T00:35:26.208Z,-0.32
2018-03-19T00:35:30.537Z,-0.34
2018-03-19T00:35:34.759Z,-0.32
2018-03-19T00:35:39.086Z,-0.26
2018-03-19T00:35:43.413Z,-0.24
2018-03-19T00:35:47.532Z,-0.23
2018-03-19T00:35:51.430Z,-0.2
2018-03-19T00:35:55.657Z,-0.3
2018-03-19T00:35:59.885Z,-0.24
2018-03-19T00:36:04.251Z,-0.27
2018-03-19T00:36:08.588Z,-0.3
2018-03-19T00:36:12.599Z,-0.21
2018-03-19T00:36:16.923Z,-0.21
2018-03-19T00:36:20.928Z,-0.24
2018-03-19T00:36:25.163Z,-0.3
2018-03-19T00:36:29.168Z,-0.23
2018-03-19T00:36:33.387Z,-0.31
2018-03-19T00:36:37.506Z,-0.32
2018-03-19T00:36:41.511Z,-0.27
2018-03-19T00:36:45.843Z,-0.2
2018-03-19T00:36:49.963Z,-0.27
2018-03-19T00:36:53.974Z,-0.24
2018-03-19T00:36:58.201Z,-0.27
2018-03-19T00:37:02.520Z,-0.27
2018-03-19T00:37:06.638Z,-0.26
2018-03-19T00:37:10.861Z,-0.23
2018-03-19T00:37:14.973Z,-0.23
2018-03-19T00:37:18.974Z,-0.23
2018-03-19T00:37:23.091Z,-0.3
2018-03-19T00:37:27.417Z,-0.3
2018-03-19T00:37:31.743Z,-0.23
2018-03-19T00:37:35.861Z,-0.21
2018-03-19T00:37:39.767Z,-0.27
2018-03-19T00:37:43.665Z,-0.3
2018-03-19T00:37:47.671Z,-0.21
2018-03-19T00:37:52.008Z,-0.27
2018-03-19T00:37:56.015Z,-0.23
2018-03-19T00:38:00.013Z,-0.27
2018-03-19T00:38:04.029Z,-0.26
2018-03-19T00:38:08.263Z,-0.24
2018-03-19T00:38:12.272Z,-0.3
2018-03-19T00:38:16.599Z,-0.23
2018-03-19T00:38:20.728Z,-0.27
2018-03-19T00:38:24.842Z,-0.2
2018-03-19T00:38:29.065Z,-0.3
2018-03-19T00:38:33.288Z,-0.24
2018-03-19T00:38:37.623Z,-0.14
2018-03-19T00:38:41.980Z,-0.14
2018-03-19T00:38:46.205Z,-0.35
2018-03-19T00:38:50.319Z,-0.26
2018-03-19T00:38:54.662Z,-0.13
2018-03-19T00:38:59.011Z,-0.2
2018-03-19T00:39:03.382Z,-0.21
2018-03-19T00:39:07.500Z,-0.24
2018-03-19T00:39:11.834Z,-0.23
2018-03-19T00:39:16.059Z,-0.13
2018-03-19T00:39:20.285Z,-0.14
2018-03-19T00:39:24.404Z,-0.27
2018-03-19T00:39:28.306Z,-0.19
2018-03-19T00:39:32.532Z,-0.14
2018-03-19T00:39:36.650Z,-0.19
2018-03-19T00:39:40.651Z,-0.14
2018-03-19T00:39:44.763Z,-0.21
2018-03-19T00:39:48.773Z,-0.21
2018-03-19T00:39:52.991Z,-0.26
2018-03-19T00:39:57.107Z,-0.17
2018-03-19T00:40:01.113Z,-0.13
2018-03-19T00:40:05.460Z,-0.17
2018-03-19T00:40:09.692Z,-0.12
2018-03-19T00:40:13.923Z,-0.14
2018-03-19T00:40:18.150Z,-0.19
2018-03-19T00:40:22.262Z,-0.2
2018-03-19T00:40:26.319Z,-0.09
2018-03-19T00:40:30.544Z,-0.26
2018-03-19T00:40:34.775Z,-0.26
2018-03-19T00:40:38.780Z,-0.2
2018-03-19T00:40:43.115Z,-0.27
2018-03-19T00:40:47.342Z,-0.27
2018-03-19T00:40:51.678Z,-0.2
2018-03-19T00:40:55.911Z,-0.13
2018-03-19T00:41:00.028Z,-0.2
2018-03-19T00:41:04.132Z,-0.27
2018-03-19T00:41:08.242Z,-0.16
2018-03-19T00:41:12.481Z,-0.26
2018-03-19T00:41:16.704Z,-0.23
2018-03-19T00:41:20.923Z,-0.26
2018-03-19T00:41:25.047Z,-0.16
2018-03-19T00:41:28.938Z,-0.31
2018-03-19T00:41:33.160Z,-0.23
2018-03-19T00:41:37.373Z,-0.23
2018-03-19T00:41:41.597Z,-0.2
2018-03-19T00:41:45.608Z,-0.13
2018-03-19T00:41:49.774Z,-0.14
2018-03-19T00:41:54.102Z,-0.23
2018-03-19T00:41:58.326Z,-0.23
2018-03-19T00:42:02.345Z,-0.14
2018-03-19T00:42:06.352Z,-0.17
2018-03-19T00:42:10.465Z,-0.23
2018-03-19T00:42:14.683Z,-0.23
2018-03-19T00:42:18.798Z,-0.14
2018-03-19T00:42:23.021Z,-0.13
2018-03-19T00:42:27.151Z,-0.23
2018-03-19T00:42:31.305Z,-0.23
2018-03-19T00:42:35.414Z,-0.31
2018-03-19T00:42:39.529Z,-0.26
2018-03-19T00:42:43.755Z,-0.21
2018-03-19T00:42:47.982Z,-0.3
2018-03-19T00:42:51.997Z,-0.26
2018-03-19T00:42:56.218Z,-0.31
2018-03-19T00:43:00.544Z,-0.27
2018-03-19T00:43:04.766Z,-0.26
2018-03-19T00:43:08.876Z,-0.2
2018-03-19T00:43:12.990Z,-0.3
2018-03-19T00:43:17.213Z,-0.3
2018-03-19T00:43:21.440Z,-0.3
2018-03-19T00:43:25.551Z,-0.23
2018-03-19T00:43:29.768Z,-0.26
2018-03-19T00:43:33.773Z,-0.3
2018-03-19T00:43:37.892Z,-0.2
2018-03-19T00:43:42.219Z,-0.24
2018-03-19T00:43:46.222Z,-0.3
2018-03-19T00:43:50.336Z,-0.23
2018-03-19T00:43:54.552Z,-0.31
2018-03-19T00:43:58.789Z,-0.26
2018-03-19T00:44:02.900Z,-0.26
2018-03-19T00:44:07.123Z,-0.27
2018-03-19T00:44:11.135Z,-0.31
2018-03-19T00:44:15.249Z,-0.31
2018-03-19T00:44:19.258Z,-0.21
2018-03-19T00:44:23.559Z,-0.24
2018-03-19T00:44:27.464Z,-0.23
2018-03-19T00:44:31.687Z,-0.27
2018-03-19T00:44:36.026Z,-0.24
2018-03-19T00:44:40.254Z,-0.23
2018-03-19T00:44:44.374Z,-0.21
2018-03-19T00:44:48.601Z,-0.23
2018-03-19T00:44:52.719Z,-0.23
2018-03-19T00:44:56.939Z,-0.34
2018-03-19T00:45:01.158Z,-0.35
2018-03-19T00:45:05.473Z,-0.34
2018-03-19T00:45:09.697Z,-0.37
2018-03-19T00:45:14.029Z,-0.37
2018-03-19T00:45:18.359Z,-0.35
2018-03-19T00:45:22.363Z,-0.32
2018-03-19T00:45:26.364Z,-0.31
2018-03-19T00:45:30.260Z,-0.31
2018-03-19T00:45:34.370Z,-0.39
2018-03-19T00:45:38.709Z,-0.35
2018-03-19T00:45:43.085Z,-0.34
2018-03-19T00:45:47.430Z,-0.41
2018-03-19T00:45:51.540Z,-0.34
2018-03-19T00:45:55.760Z,-0.31
2018-03-19T00:45:59.876Z,-0.35
2018-03-19T00:46:04.140Z,-0.37
2018-03-19T00:46:07.937Z,-0.32
2018-03-19T00:46:12.164Z,-0.34
2018-03-19T00:46:16.283Z,-0.35
2018-03-19T00:46:20.465Z,-0.35
2018-03-19T00:46:24.685Z,-0.39
2018-03-19T00:46:28.908Z,-0.41
2018-03-19T00:46:32.917Z,-0.44
2018-03-19T00:46:37.140Z,-0.44
2018-03-19T00:46:41.362Z,-0.39
2018-03-19T00:46:45.474Z,-0.44
2018-03-19T00:46:49.483Z,-0.32
2018-03-19T00:46:53.598Z,-0.41
2018-03-19T00:46:57.813Z,-0.41
2018-03-19T00:47:02.200Z,-0.41
2018-03-19T00:47:06.216Z,-0.41
2018-03-19T00:47:10.326Z,-0.44
2018-03-19T00:47:14.444Z,-0.41
2018-03-19T00:47:18.456Z,-0.42
2018-03-19T00:47:22.687Z,-0.41
2018-03-19T00:47:27.015Z,-0.39
2018-03-19T00:47:31.029Z,-0.47
2018-03-19T00:47:35.032Z,-0.42
2018-03-19T00:47:39.263Z,-0.47
2018-03-19T00:47:43.268Z,-0.45
2018-03-19T00:47:47.378Z,-0.47
2018-03-19T00:47:51.506Z,-0.5
2018-03-19T00:47:55.840Z,-0.53
2018-03-19T00:48:00.166Z,-0.53
2018-03-19T00:48:04.589Z,-0.5
2018-03-19T00:48:08.708Z,-0.49
2018-03-19T00:48:12.819Z,-0.5
2018-03-19T00:48:17.051Z,-0.52
2018-03-19T00:48:21.290Z,-0.52
2018-03-19T00:48:25.559Z,-0.55
2018-03-19T00:48:29.567Z,-0.53
2018-03-19T00:48:33.789Z,-0.53
2018-03-19T00:48:38.015Z,-0.56
2018-03-19T00:48:42.134Z,-0.56
2018-03-19T00:48:46.363Z,-0.55
2018-03-19T00:48:50.381Z,-0.56
2018-03-19T00:48:54.707Z,-0.53
2018-03-19T00:48:59.040Z,-0.53
2018-03-19T00:49:03.361Z,-0.55
2018-03-19T00:49:07.585Z,-0.58
2018-03-19T00:49:11.375Z,-0.52
2018-03-19T00:49:15.596Z,-0.55
2018-03-19T00:49:19.818Z,-0.59
2018-03-19T00:49:24.039Z,-0.59
2018-03-19T00:49:28.062Z,-0.59
2018-03-19T00:49:32.392Z,-0.56
2018-03-19T00:49:36.505Z,-0.6
2018-03-19T00:49:40.732Z,-0.6
2018-03-19T00:49:44.949Z,-0.55
2018-03-19T00:49:48.956Z,-0.58
2018-03-19T00:49:53.181Z,-0.58
2018-03-19T00:49:57.083Z,-0.65
2018-03-19T00:50:01.310Z,-0.58
2018-03-19T00:50:05.479Z,-0.58
2018-03-19T00:50:09.694Z,-0.59
2018-03-19T00:50:13.809Z,-0.55
2018-03-19T00:50:18.039Z,-0.56
2018-03-19T00:50:22.045Z,-0.63
2018-03-19T00:50:26.384Z,-0.62
2018-03-19T00:50:30.544Z,-0.58
2018-03-19T00:50:34.775Z,-0.6
2018-03-19T00:50:39.004Z,-0.55
2018-03-19T00:50:43.338Z,-0.58
2018-03-19T00:50:47.446Z,-0.62
2018-03-19T00:50:51.772Z,-0.6
2018-03-19T00:50:55.995Z,-0.58
2018-03-19T00:51:00.109Z,-0.58
2018-03-19T00:51:04.717Z,-0.63
2018-03-19T00:51:08.936Z,-0.63
2018-03-19T00:51:13.050Z,-0.63
2018-03-19T00:51:17.374Z,-0.62
2018-03-19T00:51:21.593Z,-0.6
2018-03-19T00:51:25.925Z,-0.65
2018-03-19T00:51:30.257Z,-0.62
2018-03-19T00:51:34.369Z,-0.63
2018-03-19T00:51:38.702Z,-0.68
2018-03-19T00:51:42.816Z,-0.63
2018-03-19T00:51:47.039Z,-0.68
2018-03-19T00:51:51.154Z,-0.62
2018-03-19T00:51:55.442Z,-0.68
2018-03-19T00:51:59.558Z,-0.67
2018-03-19T00:52:03.801Z,-0.71
2018-03-19T00:52:07.912Z,-0.67
2018-03-19T00:52:12.029Z,-0.68
2018-03-19T00:52:16.375Z,-0.74
2018-03-19T00:52:20.713Z,-0.7
2018-03-19T00:52:24.844Z,-0.67
2018-03-19T00:52:28.966Z,-0.67
2018-03-19T00:52:33.078Z,-0.73
2018-03-19T00:52:37.428Z,-0.77
2018-03-19T00:52:41.647Z,-0.71
2018-03-19T00:52:45.773Z,-0.73
2018-03-19T00:52:49.996Z,-0.78
2018-03-19T00:52:54.208Z,-0.7
2018-03-19T00:52:58.324Z,-0.7
2018-03-19T00:53:02.539Z,-0.76
2018-03-19T00:53:06.543Z,-0.77
2018-03-19T00:53:10.762Z,-0.73
2018-03-19T00:53:14.770Z,-0.8
2018-03-19T00:53:19.007Z,-0.74
2018-03-19T00:53:23.223Z,-0.76
2018-03-19T00:53:27.341Z,-0.81
2018-03-19T00:53:31.664Z,-0.73
2018-03-19T00:53:35.778Z,-0.77
2018-03-19T00:53:40.001Z,-0.71
2018-03-19T00:53:44.329Z,-0.78
2018-03-19T00:53:48.443Z,-0.71
2018-03-19T00:53:52.762Z,-0.77
2018-03-19T00:53:56.770Z,-0.76